createdAt,value
2018-12-29T00:01:55.351Z,82.10
2018-12-29T00:03:59.840Z,82.40
2018-12-29T00:06:04.256Z,82.70
2018-12-29T00:08:08.594Z,82.50
2018-12-29T00:10:13.092Z,82.50
2018-12-29T00:12:17.463Z,82.50
2018-12-29T00:14:21.822Z,82.30
2018-12-29T00:16:26.341Z,82.40
2018-12-29T00:18:30.755Z,82.50
2018-12-29T00:20:35.202Z,82.40
2018-12-29T00:22:39.746Z,82.40
2018-12-29T00:24:44.090Z,82.40
2018-12-29T00:26:48.448Z,82.30
2018-12-29T00:28:52.957Z,82.40
2018-12-29T00:30:57.846Z,82.30
2018-12-29T00:33:02.200Z,82.40
2018-12-29T00:35:06.670Z,82.30
2018-12-29T00:37:11.177Z,82.20
2018-12-29T00:39:15.531Z,82.30
2018-12-29T00:41:19.943Z,82.60
2018-12-29T00:43:24.307Z,82.70
2018-12-29T00:45:28.716Z,82.90
2018-12-29T00:47:33.091Z,83.10
2018-12-29T00:49:37.450Z,83.80
2018-12-29T00:51:41.818Z,83.20
2018-12-29T00:53:46.210Z,83.10
2018-12-29T00:55:50.575Z,83.20
2018-12-29T00:57:55.027Z,83.20
2018-12-29T00:59:59.894Z,83.00
2018-12-29T01:02:04.658Z,83.30
2018-12-29T01:04:08.986Z,83.10
2018-12-29T01:06:13.451Z,83.00
2018-12-29T01:08:17.827Z,83.00
2018-12-29T01:10:22.258Z,83.20
2018-12-29T01:12:26.678Z,83.20
2018-12-29T01:14:31.064Z,83.20
2018-12-29T01:16:35.463Z,83.00
2018-12-29T01:18:39.838Z,82.90
2018-12-29T01:20:44.374Z,82.90
2018-12-29T01:22:48.734Z,83.00
2018-12-29T01:24:53.063Z,83.20
2018-12-29T01:26:57.532Z,84.00
2018-12-29T01:29:01.934Z,83.50
2018-12-29T01:31:06.333Z,83.40
2018-12-29T01:33:10.701Z,83.40
2018-12-29T01:35:15.102Z,83.20
2018-12-29T01:37:19.546Z,83.30
2018-12-29T01:39:23.901Z,83.40
2018-12-29T01:41:28.340Z,83.30
2018-12-29T01:43:32.718Z,83.10
2018-12-29T01:45:37.099Z,83.00
2018-12-29T01:47:41.521Z,82.90
2018-12-29T01:49:46.388Z,83.10
2018-12-29T01:51:50.782Z,83.20
2018-12-29T01:53:55.234Z,83.20
2018-12-29T01:55:59.649Z,83.40
2018-12-29T01:58:04.052Z,83.50
2018-12-29T02:00:08.503Z,83.50
2018-12-29T02:02:13.019Z,83.40
2018-12-29T02:04:17.375Z,83.50
2018-12-29T02:06:21.721Z,83.70
2018-12-29T02:08:26.118Z,84.00
2018-12-29T02:10:30.480Z,84.10
2018-12-29T02:12:41.151Z,85.10
2018-12-29T02:14:45.574Z,84.40
2018-12-29T02:16:49.991Z,84.40
2018-12-29T02:18:54.410Z,84.40
2018-12-29T02:20:58.849Z,84.40
2018-12-29T02:23:03.202Z,84.40
2018-12-29T02:25:07.651Z,84.50
2018-12-29T02:27:12.020Z,84.20
2018-12-29T02:29:16.362Z,84.40
2018-12-29T02:31:20.777Z,84.50
2018-12-29T02:33:25.136Z,84.50
2018-12-29T02:35:29.532Z,84.50
2018-12-29T02:37:33.915Z,84.50
2018-12-29T02:39:38.258Z,84.40
2018-12-29T02:41:42.626Z,84.60
2018-12-29T02:43:47.936Z,84.50
2018-12-29T02:45:52.303Z,84.50
2018-12-29T02:47:56.669Z,84.40
2018-12-29T02:50:01.123Z,84.50
2018-12-29T02:52:05.499Z,85.00
2018-12-29T02:54:09.950Z,85.10
2018-12-29T02:56:14.375Z,85.10
2018-12-29T02:58:18.741Z,86.00
2018-12-29T03:00:23.246Z,85.90
2018-12-29T03:02:27.945Z,85.50
2018-12-29T03:04:32.353Z,85.40
2018-12-29T03:06:36.726Z,85.30
2018-12-29T03:08:41.091Z,85.10
2018-12-29T03:10:45.503Z,85.20
2018-12-29T03:12:49.891Z,85.80
2018-12-29T03:14:54.243Z,85.20
2018-12-29T03:16:58.681Z,85.30
2018-12-29T03:19:03.801Z,85.30
2018-12-29T03:21:08.194Z,85.60
2018-12-29T03:23:12.638Z,85.80
2018-12-29T03:25:17.727Z,86.20
2018-12-29T03:27:22.115Z,86.70
2018-12-29T03:29:26.474Z,86.40
2018-12-29T03:31:31.053Z,86.20
2018-12-29T03:33:35.415Z,86.50
2018-12-29T03:35:39.778Z,86.60
2018-12-29T03:37:44.197Z,86.40
2018-12-29T03:39:48.621Z,86.10
2018-12-29T03:41:52.954Z,86.00
2018-12-29T03:43:57.350Z,86.20
2018-12-29T03:46:01.811Z,86.20
2018-12-29T03:48:06.215Z,86.50
2018-12-29T03:50:10.699Z,86.50
2018-12-29T03:52:15.191Z,86.80
2018-12-29T03:54:19.533Z,86.80
2018-12-29T03:56:23.925Z,86.90
2018-12-29T03:58:28.314Z,86.80
2018-12-29T04:00:32.685Z,86.80
2018-12-29T04:02:37.064Z,86.60
2018-12-29T04:04:41.420Z,86.70
2018-12-29T04:06:45.777Z,87.00
2018-12-29T04:09:01.322Z,86.50
2018-12-29T04:11:05.711Z,86.50
2018-12-29T04:13:10.111Z,86.40
2018-12-29T04:15:14.470Z,86.60
2018-12-29T04:17:19.607Z,87.20
2018-12-29T04:19:24.005Z,86.50
2018-12-29T04:21:28.346Z,86.50
2018-12-29T04:23:33.340Z,86.40
2018-12-29T04:25:37.728Z,86.70
2018-12-29T04:27:42.089Z,86.70
2018-12-29T04:29:46.463Z,86.70
2018-12-29T04:31:50.831Z,86.70
2018-12-29T04:33:55.195Z,86.70
2018-12-29T04:35:59.617Z,86.50
2018-12-29T04:38:04.012Z,86.40
2018-12-29T04:40:08.426Z,86.50
2018-12-29T04:42:12.840Z,86.60
2018-12-29T04:44:17.214Z,86.80
2018-12-29T04:46:21.596Z,86.70
2018-12-29T04:48:25.970Z,86.80
2018-12-29T04:50:30.386Z,87.60
2018-12-29T04:52:34.870Z,87.00
2018-12-29T04:54:39.250Z,87.00
2018-12-29T04:56:43.635Z,87.10
2018-12-29T04:58:47.964Z,87.00
2018-12-29T05:00:52.366Z,87.10
2018-12-29T05:02:56.782Z,87.10
2018-12-29T05:05:01.224Z,87.10
2018-12-29T05:07:06.703Z,86.80
2018-12-29T05:09:11.114Z,86.80
2018-12-29T05:11:15.493Z,86.90
2018-12-29T05:13:19.849Z,86.80
2018-12-29T05:15:24.231Z,86.90
2018-12-29T05:17:28.700Z,86.90
2018-12-29T05:19:33.078Z,86.90
2018-12-29T05:21:37.473Z,86.80
2018-12-29T05:23:41.947Z,86.80
2018-12-29T05:25:46.278Z,86.70
2018-12-29T05:27:51.205Z,86.80
2018-12-29T05:29:55.686Z,86.60
2018-12-29T05:32:00.055Z,86.60
2018-12-29T05:34:04.512Z,86.70
2018-12-29T05:36:09.079Z,86.70
2018-12-29T05:38:13.468Z,86.40
2018-12-29T05:40:17.953Z,86.70
2018-12-29T05:42:22.341Z,86.70
2018-12-29T05:44:26.718Z,86.40
2018-12-29T05:46:37.592Z,86.50
2018-12-29T05:48:41.974Z,86.60
2018-12-29T05:50:46.314Z,86.50
2018-12-29T05:52:50.668Z,86.50
2018-12-29T05:54:55.046Z,86.50
2018-12-29T05:56:59.396Z,86.50
2018-12-29T05:59:03.901Z,86.50
2018-12-29T06:01:08.299Z,86.70
2018-12-29T06:03:12.738Z,86.60
2018-12-29T06:05:17.115Z,86.70
2018-12-29T06:07:21.607Z,86.80
2018-12-29T06:09:25.974Z,86.60
2018-12-29T06:11:30.338Z,86.60
2018-12-29T06:13:34.742Z,86.40
2018-12-29T06:15:39.081Z,86.30
2018-12-29T06:17:43.422Z,86.30
2018-12-29T06:19:47.807Z,86.40
2018-12-29T06:21:52.314Z,86.50
2018-12-29T06:23:56.646Z,86.50
2018-12-29T06:26:01.032Z,86.50
2018-12-29T06:28:05.424Z,86.40
2018-12-29T06:30:09.847Z,86.40
2018-12-29T06:32:14.374Z,86.60
2018-12-29T06:34:18.731Z,86.40
2018-12-29T06:36:23.094Z,86.50
2018-12-29T06:38:27.514Z,86.60
2018-12-29T06:40:31.914Z,86.70
2018-12-29T06:42:36.375Z,87.40
2018-12-29T06:44:40.724Z,86.90
2018-12-29T06:46:45.096Z,87.00
2018-12-29T06:48:49.470Z,86.90
2018-12-29T06:50:53.833Z,87.00
2018-12-29T06:52:58.230Z,86.90
2018-12-29T06:55:02.575Z,86.90
2018-12-29T06:57:13.610Z,87.00
2018-12-29T06:59:18.024Z,87.10
2018-12-29T07:01:22.369Z,87.10
2018-12-29T07:03:26.758Z,87.30
2018-12-29T07:05:31.115Z,87.40
2018-12-29T07:07:35.500Z,87.30
2018-12-29T07:09:40.706Z,87.20
2018-12-29T07:11:45.051Z,87.30
2018-12-29T07:13:49.476Z,87.20
2018-12-29T07:15:53.929Z,87.50
2018-12-29T07:17:58.385Z,87.50
2018-12-29T07:20:02.851Z,87.50
2018-12-29T07:22:07.287Z,86.70
2018-12-29T07:24:11.695Z,87.40
2018-12-29T07:26:16.053Z,87.60
2018-12-29T07:28:20.455Z,87.40
2018-12-29T07:30:24.969Z,87.70
2018-12-29T07:32:29.306Z,87.70
2018-12-29T07:34:33.664Z,87.80
2018-12-29T07:36:38.076Z,88.00
2018-12-29T07:38:42.494Z,87.90
2018-12-29T07:40:46.864Z,87.80
2018-12-29T07:42:51.280Z,87.70
2018-12-29T07:44:55.653Z,87.90
2018-12-29T07:47:00.047Z,88.00
2018-12-29T07:49:04.402Z,87.90
2018-12-29T07:51:08.840Z,88.50
2018-12-29T07:53:13.238Z,87.70
2018-12-29T07:55:17.603Z,87.80
2018-12-29T07:57:22.042Z,87.90
2018-12-29T07:59:26.479Z,88.00
2018-12-29T08:01:30.869Z,87.90
2018-12-29T08:03:35.221Z,88.00
2018-12-29T08:05:39.657Z,87.80
2018-12-29T08:07:44.035Z,88.10
2018-12-29T08:09:48.453Z,88.20
2018-12-29T08:11:52.809Z,88.00
2018-12-29T08:13:57.306Z,88.00
2018-12-29T08:16:01.675Z,87.80
2018-12-29T08:18:06.028Z,87.90
2018-12-29T08:20:10.776Z,87.70
2018-12-29T08:22:15.129Z,87.80
2018-12-29T08:24:19.524Z,87.80
2018-12-29T08:26:23.997Z,87.90
2018-12-29T08:28:28.375Z,87.70
2018-12-29T08:30:32.776Z,87.80
2018-12-29T08:32:37.155Z,87.50
2018-12-29T08:34:41.518Z,87.60
2018-12-29T08:36:45.912Z,87.60
2018-12-29T08:38:50.271Z,87.50
2018-12-29T08:40:54.687Z,87.70
2018-12-29T08:42:59.069Z,87.90
2018-12-29T08:47:50.976Z,87.90
2018-12-29T08:49:56.536Z,87.80
2018-12-29T08:52:00.882Z,87.90
2018-12-29T08:54:05.271Z,87.90
2018-12-29T08:56:09.655Z,88.00
2018-12-29T08:58:14.610Z,87.80
2018-12-29T09:00:19.132Z,88.10
2018-12-29T09:02:23.753Z,88.10
2018-12-29T09:04:28.220Z,88.00
2018-12-29T09:06:32.545Z,88.10
2018-12-29T09:08:36.912Z,88.00
2018-12-29T09:10:41.302Z,88.10
2018-12-29T09:12:45.638Z,87.90
2018-12-29T09:14:51.631Z,88.00
2018-12-29T09:16:54.416Z,87.90
2018-12-29T09:18:58.859Z,88.60
2018-12-29T09:21:03.241Z,87.80
2018-12-29T09:23:08.614Z,87.90
2018-12-29T09:25:13.816Z,87.80
2018-12-29T09:27:18.240Z,87.90
2018-12-29T09:29:22.588Z,87.60
2018-12-29T09:31:27.128Z,87.60
2018-12-29T09:33:31.983Z,87.40
2018-12-29T09:35:36.438Z,87.50
2018-12-29T09:37:40.841Z,87.50
2018-12-29T09:39:45.221Z,87.50
2018-12-29T09:41:49.606Z,87.50
2018-12-29T09:43:54.170Z,87.30
2018-12-29T09:45:58.522Z,87.40
2018-12-29T09:48:02.903Z,87.50
2018-12-29T09:50:07.540Z,87.40
2018-12-29T09:52:11.951Z,87.40
2018-12-29T09:54:16.374Z,87.40
2018-12-29T09:56:20.806Z,87.10
2018-12-29T09:58:25.165Z,87.10
2018-12-29T10:00:30.521Z,87.30
2018-12-29T10:02:34.941Z,87.20
2018-12-29T10:04:39.304Z,87.30
2018-12-29T10:06:43.706Z,87.20
2018-12-29T10:08:48.077Z,87.20
2018-12-29T10:10:52.418Z,87.10
2018-12-29T10:12:56.824Z,87.20
2018-12-29T10:15:01.295Z,87.00
2018-12-29T10:17:05.693Z,86.90
2018-12-29T10:19:10.072Z,86.90
2018-12-29T10:21:14.521Z,87.00
2018-12-29T10:23:18.946Z,87.00
2018-12-29T10:25:23.289Z,87.10
2018-12-29T10:27:27.655Z,86.90
2018-12-29T10:29:33.052Z,86.90
2018-12-29T10:31:37.512Z,86.80
2018-12-29T10:33:41.890Z,86.70
2018-12-29T10:35:46.284Z,86.70
2018-12-29T10:37:50.726Z,86.60
2018-12-29T10:39:55.100Z,86.70
2018-12-29T10:41:59.518Z,86.70
2018-12-29T10:44:03.938Z,86.50
2018-12-29T10:46:08.315Z,86.60
2018-12-29T10:48:12.710Z,86.10
2018-12-29T10:50:17.230Z,86.10
2018-12-29T10:52:21.745Z,86.20
2018-12-29T10:54:26.172Z,86.00
2018-12-29T10:56:30.583Z,86.00
2018-12-29T10:58:34.997Z,86.00
2018-12-29T11:00:39.952Z,86.40
2018-12-29T11:02:44.332Z,85.40
2018-12-29T11:04:48.701Z,85.60
2018-12-29T11:06:53.104Z,86.10
2018-12-29T11:08:57.835Z,85.40
2018-12-29T11:11:02.287Z,85.30
2018-12-29T11:13:06.728Z,85.10
2018-12-29T11:15:11.114Z,85.30
2018-12-29T11:17:15.495Z,84.90
2018-12-29T11:19:19.963Z,85.00
2018-12-29T11:21:24.334Z,85.10
2018-12-29T11:23:28.682Z,85.00
2018-12-29T11:25:33.982Z,84.70
2018-12-29T11:27:38.459Z,84.80
2018-12-29T11:29:42.922Z,84.50
2018-12-29T11:31:47.342Z,84.40
2018-12-29T11:33:51.711Z,84.70
2018-12-29T11:35:56.736Z,84.50
2018-12-29T11:38:00.486Z,84.50
2018-12-29T11:40:05.007Z,84.50
2018-12-29T11:42:09.429Z,84.60
2018-12-29T11:44:14.354Z,84.50
2018-12-29T11:46:20.087Z,84.70
2018-12-29T11:48:24.523Z,84.20
2018-12-29T11:50:28.990Z,84.20
2018-12-29T11:52:33.431Z,84.40
2018-12-29T11:54:37.826Z,84.30
2018-12-29T11:56:42.281Z,84.20
2018-12-29T11:58:46.779Z,84.10
2018-12-29T12:00:51.197Z,83.80
2018-12-29T12:02:55.604Z,83.70
2018-12-29T12:05:00.001Z,83.70
2018-12-29T12:07:05.519Z,83.40
2018-12-29T12:09:09.930Z,83.20
2018-12-29T12:11:14.326Z,83.50
2018-12-29T12:13:18.821Z,83.40
2018-12-29T12:15:29.974Z,83.10
2018-12-29T12:17:34.454Z,83.30
2018-12-29T12:19:38.842Z,83.30
2018-12-29T12:21:43.274Z,83.10
2018-12-29T12:23:47.919Z,83.10
2018-12-29T12:25:53.306Z,83.10
2018-12-29T12:27:56.702Z,83.10
2018-12-29T12:30:01.106Z,83.20
2018-12-29T12:32:05.642Z,82.90
2018-12-29T12:34:10.019Z,83.00
2018-12-29T12:36:14.446Z,83.30
2018-12-29T12:40:36.098Z,82.30
2018-12-29T12:42:40.482Z,82.80
2018-12-29T12:44:44.854Z,82.90
2018-12-29T12:46:49.357Z,83.60
2018-12-29T12:48:53.674Z,83.00
2018-12-29T12:50:58.086Z,82.80
2018-12-29T12:53:02.502Z,82.50
2018-12-29T12:55:06.901Z,82.60
2018-12-29T12:57:11.278Z,82.50
2018-12-29T12:59:15.701Z,82.20
2018-12-29T13:01:20.092Z,82.50
2018-12-29T13:03:24.539Z,82.30
2018-12-29T13:05:28.906Z,82.30
2018-12-29T13:07:33.335Z,82.10
2018-12-29T13:09:37.685Z,82.00
2018-12-29T13:11:42.049Z,81.80
2018-12-29T13:13:46.459Z,82.00
2018-12-29T13:15:50.858Z,81.80
2018-12-29T13:17:56.336Z,81.80
2018-12-29T13:20:00.977Z,81.80
2018-12-29T13:22:05.402Z,81.90
2018-12-29T13:24:10.495Z,81.90
2018-12-29T13:26:14.853Z,81.90
2018-12-29T13:28:19.239Z,81.90
2018-12-29T13:30:23.674Z,81.90
2018-12-29T13:32:28.168Z,81.60
2018-12-29T13:34:32.595Z,81.50
2018-12-29T13:36:36.985Z,81.20
2018-12-29T13:38:41.380Z,81.20
2018-12-29T13:40:45.873Z,81.20
2018-12-29T13:42:50.438Z,81.50
2018-12-29T13:44:54.962Z,81.60
2018-12-29T13:46:59.354Z,81.20
2018-12-29T13:49:03.819Z,80.90
2018-12-29T13:51:08.289Z,81.30
2018-12-29T13:53:12.631Z,81.20
2018-12-29T13:55:16.998Z,81.30
2018-12-29T13:57:22.052Z,81.20
2018-12-29T13:59:26.446Z,81.20
2018-12-29T14:01:30.923Z,81.30
2018-12-29T14:03:35.353Z,80.50
2018-12-29T14:05:40.342Z,81.00
2018-12-29T14:07:44.748Z,80.90
2018-12-29T14:09:49.159Z,81.10
2018-12-29T14:11:53.580Z,80.90
2018-12-29T14:13:57.972Z,80.80
2018-12-29T14:16:02.371Z,81.00
2018-12-29T14:18:06.787Z,81.00
2018-12-29T14:20:11.281Z,81.00
2018-12-29T14:22:15.703Z,80.90
2018-12-29T14:24:20.134Z,81.00
2018-12-29T14:26:24.586Z,80.80
2018-12-29T14:28:29.046Z,80.70
2018-12-29T14:30:33.447Z,80.80
2018-12-29T14:32:37.911Z,80.80
2018-12-29T14:34:42.328Z,80.70
2018-12-29T14:36:46.699Z,80.80
2018-12-29T14:38:51.136Z,80.20
2018-12-29T14:40:55.609Z,80.60
2018-12-29T14:42:59.975Z,80.40
2018-12-29T14:45:04.421Z,80.30
2018-12-29T14:47:08.846Z,80.40
2018-12-29T14:49:13.198Z,80.60
2018-12-29T14:51:17.571Z,80.40
2018-12-29T14:53:21.945Z,80.30
2018-12-29T14:55:26.402Z,80.00
2018-12-29T14:57:30.863Z,80.40
2018-12-29T14:59:35.238Z,80.10
2018-12-29T15:01:39.662Z,80.40
2018-12-29T15:03:44.098Z,80.50
2018-12-29T15:05:48.539Z,80.50
2018-12-29T15:07:53.592Z,80.80
2018-12-29T15:09:58.018Z,80.60
2018-12-29T15:12:02.379Z,80.90
2018-12-29T15:14:06.742Z,81.00
2018-12-29T15:16:11.158Z,81.20
2018-12-29T15:18:15.522Z,81.50
2018-12-29T15:20:19.981Z,81.70
2018-12-29T15:22:24.383Z,81.70
2018-12-29T15:24:28.843Z,81.70
2018-12-29T15:26:33.372Z,82.60
2018-12-29T15:28:38.215Z,82.20
2018-12-29T15:30:42.577Z,82.70
2018-12-29T15:32:47.042Z,82.70
2018-12-29T15:34:51.450Z,83.00
2018-12-29T15:36:55.980Z,83.20
2018-12-29T15:39:00.669Z,83.60
2018-12-29T15:41:05.082Z,83.80
2018-12-29T15:43:09.638Z,84.30
2018-12-29T15:45:14.055Z,85.10
2018-12-29T15:47:18.437Z,85.90
2018-12-29T15:49:22.888Z,86.40
2018-12-29T15:51:27.294Z,87.30
2018-12-29T15:53:31.776Z,88.10
2018-12-29T15:55:36.251Z,89.00
2018-12-29T15:57:40.727Z,88.80
2018-12-29T15:59:45.118Z,89.20
2018-12-29T16:01:49.666Z,89.30
2018-12-29T16:03:54.067Z,89.50
2018-12-29T16:05:58.581Z,89.40
2018-12-29T16:08:03.720Z,89.40
2018-12-29T16:10:08.261Z,89.60
2018-12-29T16:12:12.759Z,89.40
2018-12-29T16:14:17.156Z,89.40
2018-12-29T16:16:21.611Z,89.70
2018-12-29T16:18:26.556Z,89.80
2018-12-29T16:20:30.991Z,89.90
2018-12-29T16:22:35.386Z,89.80
2018-12-29T16:24:40.182Z,89.80
2018-12-29T16:26:44.599Z,89.90
2018-12-29T16:28:49.047Z,90.00
2018-12-29T16:30:53.419Z,90.00
2018-12-29T16:32:58.295Z,90.00
2018-12-29T16:35:02.717Z,90.10
2018-12-29T16:37:07.206Z,90.10
2018-12-29T16:39:11.713Z,90.10
2018-12-29T16:41:16.089Z,90.10
2018-12-29T16:43:20.469Z,90.10
2018-12-29T16:45:24.917Z,90.00
2018-12-29T16:47:29.331Z,90.10
2018-12-29T16:49:33.807Z,90.00
2018-12-29T16:51:38.213Z,90.30
2018-12-29T16:53:42.625Z,90.00
2018-12-29T16:55:47.059Z,89.90
2018-12-29T16:57:51.486Z,89.80
2018-12-29T16:59:55.818Z,89.70
2018-12-29T17:02:00.330Z,89.80
2018-12-29T17:04:04.718Z,89.60
2018-12-29T17:06:09.141Z,89.60
2018-12-29T17:08:13.534Z,89.90
2018-12-29T17:10:17.982Z,89.80
2018-12-29T17:12:22.471Z,89.70
2018-12-29T17:14:26.910Z,89.60
2018-12-29T17:16:31.381Z,89.60
2018-12-29T17:18:35.852Z,89.50
2018-12-29T17:20:40.237Z,89.30
2018-12-29T17:22:45.469Z,89.60
2018-12-29T17:24:49.890Z,89.30
2018-12-29T17:26:54.300Z,89.50
2018-12-29T17:28:59.823Z,89.40
2018-12-29T17:31:04.214Z,89.40
2018-12-29T17:33:08.658Z,89.40
2018-12-29T17:35:13.151Z,89.30
2018-12-29T17:37:17.514Z,89.30
2018-12-29T17:39:21.892Z,89.40
2018-12-29T17:41:26.334Z,89.50
2018-12-29T17:43:30.725Z,89.40
2018-12-29T17:45:35.211Z,90.00
2018-12-29T17:47:39.637Z,89.30
2018-12-29T17:49:44.001Z,89.30
2018-12-29T17:51:48.392Z,89.30
2018-12-29T17:53:52.788Z,89.20
2018-12-29T17:55:57.172Z,89.30
2018-12-29T17:58:01.588Z,89.30
2018-12-29T18:00:06.406Z,89.40
2018-12-29T18:02:10.810Z,89.60
2018-12-29T18:04:15.266Z,89.40
2018-12-29T18:06:19.702Z,89.80
2018-12-29T18:08:24.205Z,89.60
2018-12-29T18:10:28.632Z,89.70
2018-12-29T18:12:33.060Z,89.70
2018-12-29T18:14:37.477Z,89.70
2018-12-29T18:16:41.914Z,89.70
2018-12-29T18:18:46.338Z,89.90
2018-12-29T18:20:50.731Z,89.90
2018-12-29T18:22:55.089Z,90.00
2018-12-29T18:24:59.837Z,90.00
2018-12-29T18:27:04.248Z,90.30
2018-12-29T18:29:08.662Z,90.00
2018-12-29T18:31:13.077Z,90.00
2018-12-29T18:33:17.481Z,90.20
2018-12-29T18:35:21.864Z,89.90
2018-12-29T18:37:26.233Z,90.00
2018-12-29T18:39:30.643Z,90.10
2018-12-29T18:41:41.270Z,90.00
2018-12-29T18:43:45.723Z,90.00
2018-12-29T18:45:50.094Z,90.10
2018-12-29T18:47:54.448Z,90.10
2018-12-29T18:49:58.863Z,90.00
2018-12-29T18:52:03.265Z,90.00
2018-12-29T18:54:07.646Z,90.00
2018-12-29T18:56:12.415Z,90.00
2018-12-29T18:58:17.671Z,90.10
2018-12-29T19:00:22.075Z,90.10
2018-12-29T19:02:26.474Z,90.00
2018-12-29T19:04:30.928Z,90.10
2018-12-29T19:06:35.299Z,90.10
2018-12-29T19:08:39.713Z,90.00
2018-12-29T19:10:44.121Z,90.00
2018-12-29T19:12:48.486Z,90.10
2018-12-29T19:14:52.877Z,90.20
2018-12-29T19:16:57.275Z,90.20
2018-12-29T19:19:02.171Z,90.20
2018-12-29T19:21:06.565Z,90.10
2018-12-29T19:23:10.934Z,90.20
2018-12-29T19:25:15.351Z,90.20
2018-12-29T19:27:20.624Z,90.20
2018-12-29T19:29:25.055Z,90.20
2018-12-29T19:31:29.521Z,90.30
2018-12-29T19:33:33.800Z,90.30
2018-12-29T19:35:38.195Z,90.20
2018-12-29T19:37:42.705Z,90.30
2018-12-29T19:39:47.097Z,90.20
2018-12-29T19:41:55.070Z,90.30
2018-12-29T19:43:55.979Z,90.30
2018-12-29T19:46:00.376Z,90.30
2018-12-29T19:48:04.785Z,90.20
2018-12-29T19:50:09.189Z,90.20
2018-12-29T19:52:13.633Z,90.10
2018-12-29T19:54:17.963Z,90.20
2018-12-29T19:56:22.937Z,90.40
2018-12-29T19:58:27.329Z,90.30
2018-12-29T20:00:31.690Z,90.00
2018-12-29T20:02:36.098Z,89.90
2018-12-29T20:04:40.505Z,89.90
2018-12-29T20:06:44.942Z,89.80
2018-12-29T20:08:49.441Z,89.60
2018-12-29T20:10:53.845Z,89.40
2018-12-29T20:12:58.252Z,89.30
2018-12-29T20:15:02.638Z,89.30
2018-12-29T20:17:08.712Z,89.10
2018-12-29T20:19:11.566Z,88.90
2018-12-29T20:21:15.932Z,88.80
2018-12-29T20:23:20.311Z,88.80
2018-12-29T20:25:24.894Z,88.50
2018-12-29T20:27:29.354Z,88.30
2018-12-29T20:29:34.629Z,87.90
2018-12-29T20:31:39.066Z,87.40
2018-12-29T20:33:43.512Z,87.70
2018-12-29T20:35:48.079Z,87.60
2018-12-29T20:37:52.572Z,87.00
2018-12-29T20:39:57.019Z,86.80
2018-12-29T20:42:01.428Z,86.50
2018-12-29T20:44:05.824Z,86.50
2018-12-29T20:46:10.446Z,86.70
2018-12-29T20:48:14.843Z,86.80
2018-12-29T20:50:19.754Z,86.50
2018-12-29T20:52:25.554Z,86.40
2018-12-29T20:54:29.961Z,86.40
2018-12-29T20:56:34.391Z,86.30
2018-12-29T20:58:38.874Z,86.20
2018-12-29T21:00:43.348Z,85.40
2018-12-29T21:02:47.850Z,84.10
2018-12-29T21:04:52.322Z,82.90
2018-12-29T21:06:56.846Z,83.30
2018-12-29T21:09:01.307Z,81.60
2018-12-29T21:11:05.811Z,80.50
2018-12-29T21:13:10.262Z,80.30
2018-12-29T21:15:14.641Z,80.30
2018-12-29T21:17:19.270Z,80.80
2018-12-29T21:19:23.684Z,80.60
2018-12-29T21:21:30.759Z,80.50
2018-12-29T21:23:35.665Z,80.00
2018-12-29T21:25:40.178Z,79.50
2018-12-29T21:27:44.683Z,79.10
2018-12-29T21:29:49.121Z,79.70
2018-12-29T21:31:53.621Z,77.70
2018-12-29T21:33:58.087Z,76.60
2018-12-29T21:36:02.767Z,77.10
2018-12-29T21:38:07.649Z,75.50
2018-12-29T21:40:12.670Z,74.30
2018-12-29T21:42:17.168Z,74.70
2018-12-29T21:46:37.109Z,74.30
2018-12-29T21:48:41.787Z,73.70
2018-12-29T21:50:46.253Z,73.60
2018-12-29T21:52:53.896Z,73.20
2018-12-29T21:54:58.721Z,73.10
2018-12-29T21:57:03.120Z,74.10
2018-12-29T21:59:07.640Z,74.40
2018-12-29T22:01:12.111Z,74.90
2018-12-29T22:03:16.523Z,75.10
2018-12-29T22:05:20.967Z,75.40
2018-12-29T22:07:25.405Z,75.70
2018-12-29T22:09:29.822Z,75.80
2018-12-29T22:11:34.683Z,75.90
2018-12-29T22:13:39.140Z,75.60
2018-12-29T22:15:43.562Z,75.60
2018-12-29T22:17:48.163Z,75.80
2018-12-29T22:19:53.456Z,75.30
2018-12-29T22:21:57.974Z,75.50
2018-12-29T22:24:02.525Z,75.30
2018-12-29T22:26:07.014Z,75.00
2018-12-29T22:28:11.448Z,75.20
2018-12-29T22:30:15.858Z,74.80
2018-12-29T22:32:20.290Z,74.80
2018-12-29T22:34:24.662Z,75.20
2018-12-29T22:36:29.142Z,75.10
2018-12-29T22:38:34.626Z,75.00
2018-12-29T22:40:38.990Z,75.00
2018-12-29T22:42:43.851Z,75.20
2018-12-29T22:44:48.242Z,75.40
2018-12-29T22:46:52.650Z,75.40
2018-12-29T22:48:57.105Z,75.70
2018-12-29T22:51:01.508Z,75.60
2018-12-29T22:53:05.923Z,75.70
2018-12-29T22:55:10.661Z,75.40
2018-12-29T22:57:16.111Z,75.40
2018-12-29T22:59:20.515Z,76.00
2018-12-29T23:01:25.045Z,75.40
2018-12-29T23:03:29.466Z,75.30
2018-12-29T23:05:33.891Z,75.90
2018-12-29T23:07:39.938Z,75.70
2018-12-29T23:09:44.362Z,75.90
2018-12-29T23:11:49.102Z,75.60
2018-12-29T23:13:53.506Z,76.00
2018-12-29T23:15:57.918Z,75.70
2018-12-29T23:18:02.630Z,75.60
2018-12-29T23:20:07.193Z,75.70
2018-12-29T23:22:12.173Z,75.40
2018-12-29T23:24:16.583Z,75.80
2018-12-29T23:26:20.976Z,75.40
2018-12-29T23:28:25.504Z,76.70
2018-12-29T23:30:31.611Z,75.70
2018-12-29T23:32:36.046Z,76.10
2018-12-29T23:34:40.518Z,75.40
2018-12-29T23:36:45.471Z,75.40
2018-12-29T23:38:50.030Z,75.00
2018-12-29T23:40:54.390Z,75.00
2018-12-29T23:42:58.766Z,75.50
2018-12-29T23:45:03.232Z,75.40
2018-12-29T23:47:07.591Z,75.40
2018-12-29T23:49:12.016Z,75.40
2018-12-29T23:51:16.509Z,75.30
2018-12-29T23:53:20.886Z,75.50
2018-12-29T23:55:25.387Z,75.40
2018-12-29T23:57:29.831Z,75.30
2018-12-29T23:59:34.246Z,75.10
